Manistique, Schoolcraft County Airport (KISQ)

NameSchoolcraft County Airport
CityManistique
CountryUnited States
ICAOKISQ
IATAISQ
Altitude208 m
CoordinatesGoogle Map
Live Air TrafficLiveATC.net
METARKISQ 091855Z AUTO 00000KT 10SM OVC020 M03/M10 A3024 RMK AO2 T10331096
2018-12-09 18:55:00 Wind: North (0°) 0 m/s - Visibility: 16093.4 m - Temperature: -3 °C - Dew point: -10 °C - Humidity: 58.9% - Pressure: 1024.04 hPa
Statistics

The table below shows the detailed information of all flights to/from Manistique, Schoolcraft County Airport (KISQ).